createdAt,value
2022-11-13T00:00:09.856Z,6.20
2022-11-13T00:03:31.413Z,6.19
2022-11-13T00:06:58.793Z,6.18
2022-11-13T00:10:15.372Z,6.18
2022-11-13T00:13:17.275Z,6.17
2022-11-13T00:16:21.575Z,6.16
2022-11-13T00:19:23.406Z,6.16
2022-11-13T00:22:25.266Z,6.17
2022-11-13T00:25:27.004Z,6.17
2022-11-13T00:28:29.084Z,6.15
2022-11-13T00:31:31.248Z,6.13
2022-11-13T00:34:47.232Z,6.12
2022-11-13T00:37:49.912Z,6.11
2022-11-13T00:40:51.572Z,6.12
2022-11-13T00:43:53.449Z,6.14
2022-11-13T00:46:55.252Z,6.15
2022-11-13T00:49:56.854Z,6.15
2022-11-13T00:52:58.633Z,6.15
2022-11-13T00:56:00.813Z,6.17
2022-11-13T00:59:02.718Z,6.16
2022-11-13T01:02:04.472Z,6.14
2022-11-13T01:05:06.487Z,6.13
2022-11-13T01:08:09.510Z,6.13
2022-11-13T01:11:17.120Z,6.13
2022-11-13T01:14:18.696Z,6.14
2022-11-13T01:17:20.215Z,6.13
2022-11-13T01:20:23.761Z,6.13
2022-11-13T01:23:25.475Z,6.13
2022-11-13T01:26:29.990Z,6.15
2022-11-13T01:29:32.103Z,6.18
2022-11-13T01:32:33.969Z,6.19
2022-11-13T01:35:35.603Z,6.20
2022-11-13T01:38:37.688Z,6.20
2022-11-13T01:41:40.561Z,6.19
2022-11-13T01:44:55.059Z,6.17
2022-11-13T01:47:56.886Z,6.16
2022-11-13T01:50:58.946Z,6.14
2022-11-13T01:54:03.692Z,6.11
2022-11-13T01:57:09.244Z,6.11
2022-11-13T02:00:12.534Z,6.08
2022-11-13T02:03:14.345Z,6.05
2022-11-13T02:06:16.540Z,6.07
2022-11-13T02:09:30.988Z,6.07
2022-11-13T02:12:35.314Z,6.05
2022-11-13T02:15:37.437Z,6.02
2022-11-13T02:18:39.940Z,6.02
2022-11-13T02:21:56.523Z,6.01
2022-11-13T02:25:00.456Z,6.01
2022-11-13T02:28:02.405Z,5.98
2022-11-13T02:31:09.176Z,5.97
2022-11-13T02:34:10.865Z,5.95
2022-11-13T02:37:12.537Z,5.94
2022-11-13T02:40:14.254Z,5.93
2022-11-13T02:43:16.041Z,5.92
2022-11-13T02:46:17.665Z,5.90
2022-11-13T02:49:19.284Z,5.89
2022-11-13T02:52:21.049Z,5.90
2022-11-13T02:55:22.882Z,5.89
2022-11-13T02:58:24.693Z,5.87
2022-11-13T03:01:26.430Z,5.85
2022-11-13T03:04:44.048Z,5.84
2022-11-13T03:07:49.830Z,5.85
2022-11-13T03:10:55.161Z,5.86
2022-11-13T03:13:56.839Z,5.87
2022-11-13T03:16:58.600Z,5.89
2022-11-13T03:20:00.414Z,5.88
2022-11-13T03:23:02.481Z,5.86
2022-11-13T03:26:06.534Z,5.85
2022-11-13T03:29:08.269Z,5.84
2022-11-13T03:32:09.996Z,5.83
2022-11-13T03:35:11.719Z,5.82
2022-11-13T03:38:13.270Z,5.80
2022-11-13T03:41:15.060Z,5.78
2022-11-13T03:44:16.862Z,5.77
2022-11-13T03:47:18.673Z,5.77
2022-11-13T03:50:20.258Z,5.75
2022-11-13T03:53:21.939Z,5.75
2022-11-13T03:56:23.566Z,5.74
2022-11-13T03:59:25.301Z,5.73
2022-11-13T04:02:27.014Z,5.72
2022-11-13T04:05:28.579Z,5.71
2022-11-13T04:08:30.552Z,5.71
2022-11-13T04:11:32.637Z,5.71
2022-11-13T04:14:34.305Z,5.72
2022-11-13T04:17:35.847Z,5.73
2022-11-13T04:20:37.640Z,5.73
2022-11-13T04:23:39.250Z,5.71
2022-11-13T04:26:40.879Z,5.71
2022-11-13T04:29:42.548Z,5.70
2022-11-13T04:32:44.035Z,5.67
2022-11-13T04:35:46.206Z,5.66
2022-11-13T04:38:47.768Z,5.64
2022-11-13T04:42:08.262Z,5.65
2022-11-13T04:45:10.308Z,5.66
2022-11-13T04:48:12.040Z,5.66
2022-11-13T04:51:13.824Z,5.66
2022-11-13T04:54:15.788Z,5.66
2022-11-13T04:57:17.420Z,5.67
2022-11-13T05:00:19.447Z,5.67
2022-11-13T05:03:21.184Z,5.67
2022-11-13T05:06:23.251Z,5.66
2022-11-13T05:09:24.969Z,5.66
2022-11-13T05:12:26.644Z,5.64
2022-11-13T05:15:28.390Z,5.55
2022-11-13T05:18:30.550Z,5.37
2022-11-13T05:21:36.741Z,5.22
2022-11-13T05:24:38.436Z,5.17
2022-11-13T05:27:39.915Z,5.21
2022-11-13T05:30:41.514Z,5.19
2022-11-13T05:33:43.581Z,5.17
2022-11-13T05:36:45.516Z,5.01
2022-11-13T05:39:47.110Z,4.92
2022-11-13T05:42:48.664Z,4.78
2022-11-13T05:45:50.224Z,4.72
2022-11-13T05:48:53.596Z,4.72
2022-11-13T05:51:55.662Z,4.75
2022-11-13T05:54:57.375Z,4.76
2022-11-13T05:57:59.144Z,4.79
2022-11-13T06:01:15.688Z,4.89
2022-11-13T06:04:17.505Z,4.91
2022-11-13T06:07:19.964Z,4.93
2022-11-13T06:10:21.625Z,5.02
2022-11-13T06:13:23.247Z,5.05
2022-11-13T06:16:27.483Z,5.06
2022-11-13T06:19:29.388Z,5.13
2022-11-13T06:22:31.080Z,5.16
2022-11-13T06:25:32.906Z,5.12
2022-11-13T06:28:34.949Z,5.10
2022-11-13T06:31:37.439Z,5.09
2022-11-13T06:34:39.222Z,5.09
2022-11-13T06:37:41.077Z,5.10
2022-11-13T06:40:42.732Z,5.08
2022-11-13T06:43:44.487Z,5.11
2022-11-13T06:46:46.207Z,5.13
2022-11-13T06:49:47.802Z,5.13
2022-11-13T06:52:49.645Z,5.18
2022-11-13T06:55:51.482Z,5.19
2022-11-13T06:58:55.220Z,5.21
2022-11-13T07:01:56.950Z,5.21
2022-11-13T07:04:59.056Z,5.21
2022-11-13T07:08:00.862Z,5.16
2022-11-13T07:11:02.579Z,5.17
2022-11-13T07:14:04.398Z,5.21
2022-11-13T07:17:09.579Z,5.22
2022-11-13T07:20:12.290Z,5.21
2022-11-13T07:23:14.137Z,5.19
2022-11-13T07:26:16.180Z,5.16
2022-11-13T07:29:17.806Z,5.15
2022-11-13T07:32:19.439Z,5.17
2022-11-13T07:35:21.180Z,5.24
2022-11-13T07:38:22.962Z,5.29
2022-11-13T07:41:24.578Z,5.34
2022-11-13T07:44:53.019Z,5.35
2022-11-13T07:47:48.184Z,5.37
2022-11-13T07:50:50.624Z,5.37
2022-11-13T07:53:52.442Z,5.36
2022-11-13T07:56:54.228Z,5.30
2022-11-13T07:59:56.081Z,5.30
2022-11-13T08:02:57.675Z,5.41
2022-11-13T08:06:03.487Z,5.49
2022-11-13T08:09:05.384Z,5.55
2022-11-13T08:12:07.283Z,5.50
2022-11-13T08:15:13.347Z,5.47
2022-11-13T08:18:15.678Z,5.49
2022-11-13T08:21:17.552Z,5.50
2022-11-13T08:24:19.201Z,5.51
2022-11-13T08:27:21.525Z,5.52
2022-11-13T08:30:24.881Z,5.46
2022-11-13T08:33:27.131Z,5.47
2022-11-13T08:36:28.761Z,5.54
2022-11-13T08:39:30.390Z,5.58
2022-11-13T08:42:31.988Z,5.61
2022-11-13T08:45:33.614Z,5.60
2022-11-13T08:48:35.274Z,5.60
2022-11-13T08:51:37.190Z,5.61
2022-11-13T08:54:38.989Z,5.58
2022-11-13T08:57:40.624Z,5.58
2022-11-13T09:00:42.381Z,5.64
2022-11-13T09:03:44.135Z,5.71
2022-11-13T09:06:45.907Z,5.74
2022-11-13T09:09:47.708Z,5.70
2022-11-13T09:12:49.573Z,5.72
2022-11-13T09:15:51.162Z,5.76
2022-11-13T09:18:53.017Z,5.80
2022-11-13T09:21:54.809Z,5.81
2022-11-13T09:24:56.701Z,5.83
2022-11-13T09:27:59.522Z,5.85
2022-11-13T09:31:05.213Z,5.89
2022-11-13T09:34:08.076Z,5.89
2022-11-13T09:37:09.867Z,5.86
2022-11-13T09:40:12.025Z,5.88
2022-11-13T09:43:38.338Z,5.97
2022-11-13T09:46:47.834Z,6.03
2022-11-13T09:49:53.102Z,6.05
2022-11-13T09:52:55.261Z,6.08
2022-11-13T09:56:15.484Z,6.09
2022-11-13T09:59:23.725Z,6.12
2022-11-13T10:02:47.365Z,6.14
2022-11-13T10:05:52.989Z,6.14
2022-11-13T10:09:01.753Z,6.17
2022-11-13T10:12:07.788Z,6.24
2022-11-13T10:15:10.857Z,6.28
2022-11-13T10:18:26.652Z,6.32
2022-11-13T10:21:42.726Z,6.39
2022-11-13T10:24:45.203Z,6.45
2022-11-13T10:27:54.983Z,6.44
2022-11-13T10:30:56.901Z,6.43
2022-11-13T10:33:59.172Z,6.44
2022-11-13T10:37:39.910Z,6.47
2022-11-13T10:40:41.756Z,6.53
2022-11-13T10:44:19.888Z,6.55
2022-11-13T10:47:49.006Z,6.59
2022-11-13T10:50:53.729Z,6.64
2022-11-13T10:53:56.196Z,6.69
2022-11-13T10:57:02.538Z,6.72
2022-11-13T11:00:23.388Z,6.74
2022-11-13T11:03:25.942Z,6.73
2022-11-13T11:07:04.990Z,6.74
2022-11-13T11:09:57.550Z,6.76
2022-11-13T11:13:01.184Z,6.73
2022-11-13T11:16:04.446Z,6.74
2022-11-13T11:19:09.813Z,6.74
2022-11-13T11:22:23.065Z,6.75
2022-11-13T11:25:50.108Z,6.73
2022-11-13T11:29:29.503Z,6.71
2022-11-13T11:33:02.094Z,6.69
2022-11-13T11:36:22.192Z,6.64
2022-11-13T11:39:30.324Z,6.59
2022-11-13T11:42:38.912Z,6.63
2022-11-13T11:45:45.047Z,6.69
2022-11-13T11:48:46.736Z,6.72
2022-11-13T11:52:37.877Z,6.79
2022-11-13T11:55:53.760Z,6.78
2022-11-13T11:59:10.376Z,6.85
2022-11-13T12:02:27.135Z,6.86
2022-11-13T12:06:08.110Z,6.88
2022-11-13T12:09:33.306Z,6.90
2022-11-13T12:12:41.062Z,6.86
2022-11-13T12:16:05.501Z,6.90
2022-11-13T12:19:36.331Z,6.88
2022-11-13T12:22:48.642Z,6.84
2022-11-13T12:26:31.051Z,6.82
2022-11-13T12:29:46.452Z,6.77
2022-11-13T12:33:07.000Z,6.78
2022-11-13T12:36:11.454Z,6.76
2022-11-13T12:39:38.412Z,6.76
2022-11-13T12:42:54.593Z,6.71
2022-11-13T12:46:01.361Z,6.65
2022-11-13T12:49:14.263Z,6.65
2022-11-13T12:52:16.029Z,6.61
2022-11-13T12:55:32.505Z,6.61
2022-11-13T12:58:34.190Z,6.63
2022-11-13T13:01:46.981Z,6.58
2022-11-13T13:05:14.648Z,6.56
2022-11-13T13:08:46.886Z,6.57
2022-11-13T13:12:18.117Z,6.53
2022-11-13T13:15:56.465Z,6.51
2022-11-13T13:19:24.976Z,6.52
2022-11-13T13:22:32.493Z,6.50
2022-11-13T13:25:35.563Z,6.41
2022-11-13T13:28:40.260Z,6.35
2022-11-13T13:32:15.470Z,6.33
2022-11-13T13:35:30.009Z,6.28
2022-11-13T13:38:53.489Z,6.27
2022-11-13T13:42:22.795Z,6.28
2022-11-13T13:45:43.437Z,6.30
2022-11-13T13:48:46.816Z,6.34
2022-11-13T13:51:51.808Z,6.39
2022-11-13T13:54:53.889Z,6.43
2022-11-13T13:57:55.581Z,6.45
2022-11-13T14:01:18.130Z,6.47
2022-11-13T14:04:22.806Z,6.44
2022-11-13T14:07:29.860Z,6.34
2022-11-13T14:10:31.470Z,6.24
2022-11-13T14:13:33.326Z,6.21
2022-11-13T14:16:35.055Z,6.19
2022-11-13T14:19:36.952Z,6.11
2022-11-13T14:22:40.046Z,6.08
2022-11-13T14:25:42.371Z,6.10
2022-11-13T14:28:54.909Z,6.12
2022-11-13T14:32:03.290Z,6.11
2022-11-13T14:35:05.703Z,6.04
2022-11-13T14:38:19.151Z,6.04
2022-11-13T14:41:24.973Z,6.03
2022-11-13T14:44:32.603Z,6.11
2022-11-13T14:47:37.719Z,6.12
2022-11-13T14:50:52.934Z,6.08
2022-11-13T14:54:07.587Z,6.06
2022-11-13T14:57:13.181Z,6.07
2022-11-13T15:00:20.438Z,6.01
2022-11-13T15:03:22.298Z,5.98
2022-11-13T15:06:26.814Z,5.94
2022-11-13T15:09:30.221Z,5.92
2022-11-13T15:12:31.934Z,5.99
2022-11-13T15:15:33.408Z,6.00
2022-11-13T15:18:35.762Z,6.05
2022-11-13T15:21:37.661Z,6.07
2022-11-13T15:24:39.528Z,6.01
2022-11-13T15:27:43.259Z,5.97
2022-11-13T15:30:53.159Z,5.89
2022-11-13T15:33:55.707Z,5.83
2022-11-13T15:36:57.288Z,5.83
2022-11-13T15:39:58.997Z,5.77
2022-11-13T15:43:01.687Z,5.74
2022-11-13T15:46:03.951Z,5.72
2022-11-13T15:49:05.585Z,5.69
2022-11-13T15:52:08.028Z,5.67
2022-11-13T15:55:27.834Z,5.69
2022-11-13T15:58:33.704Z,5.66
2022-11-13T16:01:36.480Z,5.63
2022-11-13T16:04:55.541Z,5.57
2022-11-13T16:07:58.674Z,5.57
2022-11-13T16:11:00.880Z,5.69
2022-11-13T16:14:02.514Z,5.78
2022-11-13T16:17:11.443Z,5.81
2022-11-13T16:20:16.785Z,5.83
2022-11-13T16:23:18.420Z,5.84
2022-11-13T16:26:20.979Z,5.85
2022-11-13T16:29:24.559Z,5.85
2022-11-13T16:32:26.475Z,5.80
2022-11-13T16:35:28.106Z,5.67
2022-11-13T16:38:29.929Z,5.58
2022-11-13T16:41:32.034Z,5.57
2022-11-13T16:44:33.820Z,5.53
2022-11-13T16:47:35.544Z,5.47
2022-11-13T16:50:39.709Z,5.50
2022-11-13T16:53:41.346Z,5.51
2022-11-13T16:56:43.008Z,5.61
2022-11-13T16:59:44.684Z,5.63
2022-11-13T17:02:46.929Z,5.61
2022-11-13T17:05:52.670Z,5.61
2022-11-13T17:08:56.613Z,5.67
2022-11-13T17:11:58.284Z,5.66
2022-11-13T17:14:59.923Z,5.66
2022-11-13T17:18:01.854Z,5.69
2022-11-13T17:21:03.699Z,5.70
2022-11-13T17:24:05.789Z,5.65
2022-11-13T17:27:07.533Z,5.65
2022-11-13T17:30:10.104Z,5.71
2022-11-13T17:33:11.794Z,5.75
2022-11-13T17:36:13.397Z,5.76
2022-11-13T17:39:14.964Z,5.76
2022-11-13T17:42:16.660Z,5.71
2022-11-13T17:45:18.634Z,5.65
2022-11-13T17:48:20.385Z,5.59
2022-11-13T17:51:22.194Z,5.61
2022-11-13T17:54:25.417Z,5.64
2022-11-13T17:57:27.340Z,5.67
2022-11-13T18:00:29.287Z,5.62
2022-11-13T18:03:31.627Z,5.63
2022-11-13T18:06:33.417Z,5.61
2022-11-13T18:09:35.375Z,5.59
2022-11-13T18:12:37.133Z,5.58
2022-11-13T18:15:39.489Z,5.57
2022-11-13T18:18:41.402Z,5.57
2022-11-13T18:21:44.079Z,5.60
2022-11-13T18:24:45.900Z,5.61
2022-11-13T18:27:47.726Z,5.60
2022-11-13T18:30:55.061Z,5.56
2022-11-13T18:33:59.852Z,5.56
2022-11-13T18:37:01.462Z,5.55
2022-11-13T18:40:03.681Z,5.56
2022-11-13T18:43:05.289Z,5.57
2022-11-13T18:46:07.414Z,5.58
2022-11-13T18:49:09.596Z,5.58
2022-11-13T18:52:11.410Z,5.61
2022-11-13T18:55:13.040Z,5.63
2022-11-13T18:58:14.599Z,5.59
2022-11-13T19:01:25.413Z,5.57
2022-11-13T19:04:27.152Z,5.58
2022-11-13T19:07:28.726Z,5.59
2022-11-13T19:10:30.354Z,5.57
2022-11-13T19:13:32.066Z,5.57
2022-11-13T19:16:39.533Z,5.59
2022-11-13T19:19:42.382Z,5.62
2022-11-13T19:22:44.409Z,5.51
2022-11-13T19:25:48.980Z,5.44
2022-11-13T19:28:52.332Z,5.44
2022-11-13T19:31:56.333Z,5.45
2022-11-13T19:34:58.228Z,5.40
2022-11-13T19:38:01.152Z,5.41
2022-11-13T19:41:04.140Z,5.42
2022-11-13T19:44:06.828Z,5.38
2022-11-13T19:47:08.621Z,5.34
2022-11-13T19:50:10.444Z,5.32
2022-11-13T19:53:12.162Z,5.30
2022-11-13T19:56:14.585Z,5.22
2022-11-13T19:59:16.387Z,5.15
2022-11-13T20:02:18.001Z,5.18
2022-11-13T20:05:19.635Z,5.25
2022-11-13T20:08:26.706Z,5.29
2022-11-13T20:11:29.937Z,5.32
2022-11-13T20:14:35.698Z,5.35
2022-11-13T20:17:39.978Z,5.32
2022-11-13T20:20:44.414Z,5.32
2022-11-13T20:23:46.217Z,5.34
2022-11-13T20:26:48.166Z,5.34
2022-11-13T20:29:49.965Z,5.32
2022-11-13T20:32:51.693Z,5.29
2022-11-13T20:35:54.225Z,5.28
2022-11-13T20:38:57.110Z,5.29
2022-11-13T20:41:59.037Z,5.29
2022-11-13T20:45:01.550Z,5.26
2022-11-13T20:48:03.540Z,5.25
2022-11-13T20:51:07.417Z,5.24
2022-11-13T20:54:09.331Z,5.22
2022-11-13T20:57:11.302Z,5.21
2022-11-13T21:00:13.225Z,5.17
2022-11-13T21:03:14.831Z,5.11
2022-11-13T21:06:19.163Z,5.13
2022-11-13T21:09:20.967Z,5.12
2022-11-13T21:12:22.915Z,5.12
2022-11-13T21:15:24.575Z,5.09
2022-11-13T21:18:26.443Z,4.99
2022-11-13T21:21:29.139Z,4.92
2022-11-13T21:24:31.257Z,4.90
2022-11-13T21:27:32.971Z,4.88
2022-11-13T21:30:34.866Z,4.94
2022-11-13T21:33:37.959Z,4.94
2022-11-13T21:36:39.553Z,4.93
2022-11-13T21:39:41.156Z,4.93
2022-11-13T21:42:43.169Z,4.89
2022-11-13T21:45:44.859Z,4.86
2022-11-13T21:48:47.225Z,4.85
2022-11-13T21:51:49.109Z,4.84
2022-11-13T21:54:50.782Z,4.81
2022-11-13T21:57:52.423Z,4.79
2022-11-13T22:00:54.206Z,4.80
2022-11-13T22:03:55.973Z,4.80
2022-11-13T22:06:57.904Z,4.80
2022-11-13T22:10:04.044Z,4.79
2022-11-13T22:13:08.705Z,4.78
2022-11-13T22:16:11.793Z,4.78
2022-11-13T22:19:23.833Z,4.77
2022-11-13T22:22:28.392Z,4.77
2022-11-13T22:25:29.920Z,4.78
2022-11-13T22:28:33.041Z,4.81
2022-11-13T22:31:36.093Z,4.85
2022-11-13T22:34:38.734Z,4.88
2022-11-13T22:37:40.332Z,4.91
2022-11-13T22:40:42.218Z,4.94
2022-11-13T22:43:45.124Z,4.95
2022-11-13T22:46:46.717Z,4.95
2022-11-13T22:49:48.292Z,4.95
2022-11-13T22:52:52.173Z,4.91
2022-11-13T22:55:53.716Z,4.87
2022-11-13T22:58:57.065Z,4.84
2022-11-13T23:01:58.703Z,4.82
2022-11-13T23:05:00.400Z,4.81
2022-11-13T23:08:02.003Z,4.79
2022-11-13T23:11:03.769Z,4.78
2022-11-13T23:14:10.146Z,4.75
2022-11-13T23:17:11.984Z,4.74
2022-11-13T23:20:14.856Z,4.73
2022-11-13T23:23:17.512Z,4.72
2022-11-13T23:26:19.447Z,4.74
2022-11-13T23:29:21.222Z,4.77
2022-11-13T23:32:23.556Z,4.80
2022-11-13T23:35:25.233Z,4.82
2022-11-13T23:38:27.173Z,4.85
2022-11-13T23:41:29.178Z,4.82
2022-11-13T23:44:30.867Z,4.75
2022-11-13T23:47:32.617Z,4.76
2022-11-13T23:50:34.450Z,4.75
2022-11-13T23:53:36.130Z,4.77
2022-11-13T23:56:37.832Z,4.79
2022-11-13T23:59:39.483Z,4.81
